sensor_id;sensor_type;location;lat;lon;timestamp;P1;durP1;ratioP1;P2;durP2;ratioP2
28455;SDS011;15682;56.742;38.866;2023-12-07T00:01:44;19.3;;;8.4;;
28455;SDS011;15682;56.742;38.866;2023-12-07T00:03:43;18.4;;;7.8;;
28455;SDS011;15682;56.742;38.866;2023-12-07T00:05:43;16.9;;;8.0;;
28455;SDS011;15682;56.742;38.866;2023-12-07T00:07:43;15.8;;;7.8;;
28455;SDS011;15682;56.742;38.866;2023-12-07T00:09:43;18.1;;;7.8;;
28455;SDS011;15682;56.742;38.866;2023-12-07T00:11:42;19.1;;;8.6;;
28455;SDS011;15682;56.742;38.866;2023-12-07T00:13:42;18.7;;;8.8;;
28455;SDS011;15682;56.742;38.866;2023-12-07T00:15:42;17.2;;;8.5;;
28455;SDS011;15682;56.742;38.866;2023-12-07T00:17:41;17.5;;;8.0;;
28455;SDS011;15682;56.742;38.866;2023-12-07T00:19:41;18.8;;;8.4;;
28455;SDS011;15682;56.742;38.866;2023-12-07T00:21:41;17.2;;;8.2;;
28455;SDS011;15682;56.742;38.866;2023-12-07T00:23:41;16.9;;;7.7;;
28455;SDS011;15682;56.742;38.866;2023-12-07T00:25:40;19.6;;;8.4;;
28455;SDS011;15682;56.742;38.866;2023-12-07T00:27:40;21.8;;;8.6;;
28455;SDS011;15682;56.742;38.866;2023-12-07T00:29:40;18.8;;;8.3;;
28455;SDS011;15682;56.742;38.866;2023-12-07T00:31:40;19.4;;;8.3;;
28455;SDS011;15682;56.742;38.866;2023-12-07T00:33:39;19.0;;;8.5;;
28455;SDS011;15682;56.742;38.866;2023-12-07T00:35:39;21.1;;;8.1;;
28455;SDS011;15682;56.742;38.866;2023-12-07T00:37:39;19.1;;;8.2;;
28455;SDS011;15682;56.742;38.866;2023-12-07T00:39:40;19.2;;;7.9;;
28455;SDS011;15682;56.742;38.866;2023-12-07T00:41:38;19.2;;;7.9;;
28455;SDS011;15682;56.742;38.866;2023-12-07T00:43:38;19.7;;;8.6;;
28455;SDS011;15682;56.742;38.866;2023-12-07T00:45:38;15.2;;;7.7;;
28455;SDS011;15682;56.742;38.866;2023-12-07T00:47:37;18.9;;;8.3;;
28455;SDS011;15682;56.742;38.866;2023-12-07T00:49:37;15.5;;;7.5;;
28455;SDS011;15682;56.742;38.866;2023-12-07T00:51:37;17.7;;;7.8;;
28455;SDS011;15682;56.742;38.866;2023-12-07T00:53:37;19.6;;;8.5;;
28455;SDS011;15682;56.742;38.866;2023-12-07T00:55:36;17.0;;;7.8;;
28455;SDS011;15682;56.742;38.866;2023-12-07T00:57:36;17.8;;;8.0;;
28455;SDS011;15682;56.742;38.866;2023-12-07T00:59:36;17.5;;;7.8;;
28455;SDS011;15682;56.742;38.866;2023-12-07T01:01:35;18.5;;;8.4;;
28455;SDS011;15682;56.742;38.866;2023-12-07T01:03:35;19.4;;;8.7;;
28455;SDS011;15682;56.742;38.866;2023-12-07T01:05:35;19.2;;;8.7;;
28455;SDS011;15682;56.742;38.866;2023-12-07T01:07:34;22.7;;;9.2;;
28455;SDS011;15682;56.742;38.866;2023-12-07T01:09:34;18.4;;;8.4;;
28455;SDS011;15682;56.742;38.866;2023-12-07T01:11:34;20.1;;;9.1;;
28455;SDS011;15682;56.742;38.866;2023-12-07T01:13:34;20.5;;;8.8;;
28455;SDS011;15682;56.742;38.866;2023-12-07T01:15:33;19.3;;;8.8;;
28455;SDS011;15682;56.742;38.866;2023-12-07T01:17:33;20.0;;;8.9;;
28455;SDS011;15682;56.742;38.866;2023-12-07T01:19:33;17.4;;;7.8;;
28455;SDS011;15682;56.742;38.866;2023-12-07T01:21:32;21.2;;;9.3;;
28455;SDS011;15682;56.742;38.866;2023-12-07T01:23:32;19.3;;;8.3;;
28455;SDS011;15682;56.742;38.866;2023-12-07T01:25:32;20.2;;;8.7;;
28455;SDS011;15682;56.742;38.866;2023-12-07T01:27:32;20.4;;;9.5;;
28455;SDS011;15682;56.742;38.866;2023-12-07T01:29:31;20.2;;;8.5;;
28455;SDS011;15682;56.742;38.866;2023-12-07T01:31:31;20.5;;;9.2;;
28455;SDS011;15682;56.742;38.866;2023-12-07T01:33:31;22.0;;;9.0;;
28455;SDS011;15682;56.742;38.866;2023-12-07T01:35:30;19.8;;;8.5;;
28455;SDS011;15682;56.742;38.866;2023-12-07T01:37:30;20.4;;;8.8;;
28455;SDS011;15682;56.742;38.866;2023-12-07T01:39:30;21.4;;;7.9;;
28455;SDS011;15682;56.742;38.866;2023-12-07T01:41:29;20.2;;;9.6;;
28455;SDS011;15682;56.742;38.866;2023-12-07T01:43:29;26.4;;;10.2;;
28455;SDS011;15682;56.742;38.866;2023-12-07T01:45:29;22.9;;;9.8;;
28455;SDS011;15682;56.742;38.866;2023-12-07T01:47:29;22.3;;;9.2;;
28455;SDS011;15682;56.742;38.866;2023-12-07T01:49:28;19.5;;;8.7;;
28455;SDS011;15682;56.742;38.866;2023-12-07T01:51:28;22.7;;;9.0;;
28455;SDS011;15682;56.742;38.866;2023-12-07T01:53:28;22.1;;;9.7;;
28455;SDS011;15682;56.742;38.866;2023-12-07T01:55:27;21.7;;;9.2;;
28455;SDS011;15682;56.742;38.866;2023-12-07T01:57:27;20.2;;;9.1;;
28455;SDS011;15682;56.742;38.866;2023-12-07T01:59:27;28.6;;;11.0;;
28455;SDS011;15682;56.742;38.866;2023-12-07T02:01:27;25.3;;;10.1;;
28455;SDS011;15682;56.742;38.866;2023-12-07T02:03:26;23.1;;;10.0;;
28455;SDS011;15682;56.742;38.866;2023-12-07T02:05:26;22.6;;;10.0;;
28455;SDS011;15682;56.742;38.866;2023-12-07T02:07:26;23.3;;;9.5;;
28455;SDS011;15682;56.742;38.866;2023-12-07T02:09:25;23.4;;;9.7;;
28455;SDS011;15682;56.742;38.866;2023-12-07T02:11:25;23.6;;;10.2;;
28455;SDS011;15682;56.742;38.866;2023-12-07T02:13:24;24.5;;;10.4;;
28455;SDS011;15682;56.742;38.866;2023-12-07T02:15:24;22.7;;;10.1;;
28455;SDS011;15682;56.742;38.866;2023-12-07T02:17:25;24.4;;;10.3;;
28455;SDS011;15682;56.742;38.866;2023-12-07T02:19:31;22.6;;;10.5;;
28455;SDS011;15682;56.742;38.866;2023-12-07T02:21:25;23.4;;;10.2;;
28455;SDS011;15682;56.742;38.866;2023-12-07T02:23:23;23.8;;;10.5;;
28455;SDS011;15682;56.742;38.866;2023-12-07T02:25:23;24.6;;;11.0;;
28455;SDS011;15682;56.742;38.866;2023-12-07T02:27:32;23.9;;;10.4;;
28455;SDS011;15682;56.742;38.866;2023-12-07T02:29:22;23.3;;;10.4;;
28455;SDS011;15682;56.742;38.866;2023-12-07T02:31:22;26.1;;;9.8;;
28455;SDS011;15682;56.742;38.866;2023-12-07T02:33:21;23.1;;;10.5;;
28455;SDS011;15682;56.742;38.866;2023-12-07T02:35:21;27.2;;;10.9;;
28455;SDS011;15682;56.742;38.866;2023-12-07T02:37:21;24.2;;;10.2;;
28455;SDS011;15682;56.742;38.866;2023-12-07T02:39:20;22.4;;;9.7;;
28455;SDS011;15682;56.742;38.866;2023-12-07T02:41:20;23.2;;;10.5;;
28455;SDS011;15682;56.742;38.866;2023-12-07T02:43:20;23.4;;;10.1;;
28455;SDS011;15682;56.742;38.866;2023-12-07T02:45:20;21.9;;;10.1;;
28455;SDS011;15682;56.742;38.866;2023-12-07T02:47:19;22.2;;;10.5;;
28455;SDS011;15682;56.742;38.866;2023-12-07T02:49:19;27.8;;;11.0;;
28455;SDS011;15682;56.742;38.866;2023-12-07T02:51:19;22.8;;;10.4;;
28455;SDS011;15682;56.742;38.866;2023-12-07T02:53:18;25.8;;;10.5;;
28455;SDS011;15682;56.742;38.866;2023-12-07T02:55:18;22.0;;;10.0;;
28455;SDS011;15682;56.742;38.866;2023-12-07T02:57:18;21.2;;;9.9;;
28455;SDS011;15682;56.742;38.866;2023-12-07T02:59:17;24.6;;;10.5;;
28455;SDS011;15682;56.742;38.866;2023-12-07T03:01:17;23.9;;;10.3;;
28455;SDS011;15682;56.742;38.866;2023-12-07T03:03:17;23.7;;;9.7;;
28455;SDS011;15682;56.742;38.866;2023-12-07T03:05:17;23.2;;;9.6;;
28455;SDS011;15682;56.742;38.866;2023-12-07T03:07:16;22.1;;;10.3;;
28455;SDS011;15682;56.742;38.866;2023-12-07T03:09:16;21.2;;;9.4;;
28455;SDS011;15682;56.742;38.866;2023-12-07T03:11:16;21.3;;;9.4;;
28455;SDS011;15682;56.742;38.866;2023-12-07T03:13:15;23.0;;;10.1;;
28455;SDS011;15682;56.742;38.866;2023-12-07T03:15:15;23.5;;;9.8;;
28455;SDS011;15682;56.742;38.866;2023-12-07T03:17:15;24.3;;;10.5;;
28455;SDS011;15682;56.742;38.866;2023-12-07T03:19:14;26.1;;;11.4;;
28455;SDS011;15682;56.742;38.866;2023-12-07T03:21:14;20.9;;;8.7;;
28455;SDS011;15682;56.742;38.866;2023-12-07T03:23:14;24.0;;;9.6;;
28455;SDS011;15682;56.742;38.866;2023-12-07T03:25:13;24.1;;;10.5;;
28455;SDS011;15682;56.742;38.866;2023-12-07T03:27:14;22.4;;;9.7;;
28455;SDS011;15682;56.742;38.866;2023-12-07T03:29:13;24.2;;;10.3;;
28455;SDS011;15682;56.742;38.866;2023-12-07T03:31:13;24.5;;;10.5;;
28455;SDS011;15682;56.742;38.866;2023-12-07T03:33:12;21.8;;;9.5;;
28455;SDS011;15682;56.742;38.866;2023-12-07T03:35:12;23.0;;;10.5;;
28455;SDS011;15682;56.742;38.866;2023-12-07T03:37:12;25.0;;;10.1;;
28455;SDS011;15682;56.742;38.866;2023-12-07T03:39:12;24.6;;;10.7;;
28455;SDS011;15682;56.742;38.866;2023-12-07T03:41:11;26.4;;;10.7;;
28455;SDS011;15682;56.742;38.866;2023-12-07T03:43:11;25.8;;;10.8;;
28455;SDS011;15682;56.742;38.866;2023-12-07T03:45:10;22.1;;;10.5;;
28455;SDS011;15682;56.742;38.866;2023-12-07T03:47:10;22.2;;;10.6;;
28455;SDS011;15682;56.742;38.866;2023-12-07T03:49:10;23.4;;;10.7;;
28455;SDS011;15682;56.742;38.866;2023-12-07T03:51:12;23.9;;;10.3;;
28455;SDS011;15682;56.742;38.866;2023-12-07T03:53:09;24.5;;;10.9;;
28455;SDS011;15682;56.742;38.866;2023-12-07T03:55:09;23.1;;;10.3;;
28455;SDS011;15682;56.742;38.866;2023-12-07T03:57:08;27.0;;;11.0;;
28455;SDS011;15682;56.742;38.866;2023-12-07T03:59:08;23.7;;;10.6;;
28455;SDS011;15682;56.742;38.866;2023-12-07T04:01:08;23.3;;;9.8;;
28455;SDS011;15682;56.742;38.866;2023-12-07T04:03:08;23.7;;;10.1;;
28455;SDS011;15682;56.742;38.866;2023-12-07T04:05:07;24.1;;;10.6;;
28455;SDS011;15682;56.742;38.866;2023-12-07T04:07:07;23.6;;;9.8;;
28455;SDS011;15682;56.742;38.866;2023-12-07T04:09:06;20.7;;;9.1;;
28455;SDS011;15682;56.742;38.866;2023-12-07T04:11:07;23.0;;;9.7;;
28455;SDS011;15682;56.742;38.866;2023-12-07T04:13:06;20.4;;;9.0;;
28455;SDS011;15682;56.742;38.866;2023-12-07T04:15:06;21.9;;;10.1;;
28455;SDS011;15682;56.742;38.866;2023-12-07T04:17:05;24.3;;;10.0;;
28455;SDS011;15682;56.742;38.866;2023-12-07T04:19:05;22.3;;;10.1;;
28455;SDS011;15682;56.742;38.866;2023-12-07T04:21:05;21.5;;;9.5;;
28455;SDS011;15682;56.742;38.866;2023-12-07T04:23:04;25.9;;;10.5;;
28455;SDS011;15682;56.742;38.866;2023-12-07T04:25:05;24.9;;;10.5;;
28455;SDS011;15682;56.742;38.866;2023-12-07T04:27:04;22.8;;;10.0;;
28455;SDS011;15682;56.742;38.866;2023-12-07T04:29:03;24.3;;;10.7;;
28455;SDS011;15682;56.742;38.866;2023-12-07T04:31:03;22.7;;;10.4;;
28455;SDS011;15682;56.742;38.866;2023-12-07T04:33:03;25.4;;;10.7;;
28455;SDS011;15682;56.742;38.866;2023-12-07T04:35:03;21.6;;;10.2;;
28455;SDS011;15682;56.742;38.866;2023-12-07T04:37:02;25.8;;;10.9;;
28455;SDS011;15682;56.742;38.866;2023-12-07T04:39:02;24.6;;;11.1;;
28455;SDS011;15682;56.742;38.866;2023-12-07T04:41:02;26.2;;;11.2;;
28455;SDS011;15682;56.742;38.866;2023-12-07T04:43:01;24.8;;;11.4;;
28455;SDS011;15682;56.742;38.866;2023-12-07T04:45:01;24.1;;;11.1;;
28455;SDS011;15682;56.742;38.866;2023-12-07T04:47:01;24.5;;;11.0;;
28455;SDS011;15682;56.742;38.866;2023-12-07T04:49:00;23.8;;;10.6;;
28455;SDS011;15682;56.742;38.866;2023-12-07T04:51:00;23.2;;;10.3;;
28455;SDS011;15682;56.742;38.866;2023-12-07T04:53:00;24.9;;;11.3;;
28455;SDS011;15682;56.742;38.866;2023-12-07T04:54:59;22.3;;;10.7;;
28455;SDS011;15682;56.742;38.866;2023-12-07T04:56:59;21.4;;;9.7;;
28455;SDS011;15682;56.742;38.866;2023-12-07T04:58:59;27.5;;;11.2;;
28455;SDS011;15682;56.742;38.866;2023-12-07T05:00:58;23.3;;;10.3;;
28455;SDS011;15682;56.742;38.866;2023-12-07T05:02:58;26.2;;;10.6;;
28455;SDS011;15682;56.742;38.866;2023-12-07T05:04:58;26.0;;;10.5;;
28455;SDS011;15682;56.742;38.866;2023-12-07T05:06:57;21.6;;;9.6;;
28455;SDS011;15682;56.742;38.866;2023-12-07T05:08:57;24.2;;;10.4;;
28455;SDS011;15682;56.742;38.866;2023-12-07T05:10:57;26.0;;;10.7;;
28455;SDS011;15682;56.742;38.866;2023-12-07T05:12:57;21.3;;;10.1;;
28455;SDS011;15682;56.742;38.866;2023-12-07T05:14:56;22.5;;;9.8;;
28455;SDS011;15682;56.742;38.866;2023-12-07T05:16:56;23.8;;;10.1;;
28455;SDS011;15682;56.742;38.866;2023-12-07T05:18:56;24.0;;;10.5;;
28455;SDS011;15682;56.742;38.866;2023-12-07T05:20:55;24.4;;;10.3;;
28455;SDS011;15682;56.742;38.866;2023-12-07T05:22:55;24.7;;;10.5;;
28455;SDS011;15682;56.742;38.866;2023-12-07T05:24:55;22.2;;;9.9;;
28455;SDS011;15682;56.742;38.866;2023-12-07T05:26:54;24.1;;;10.1;;
28455;SDS011;15682;56.742;38.866;2023-12-07T05:28:54;23.8;;;10.3;;
28455;SDS011;15682;56.742;38.866;2023-12-07T05:30:54;28.0;;;10.9;;
28455;SDS011;15682;56.742;38.866;2023-12-07T05:32:53;28.7;;;12.2;;
28455;SDS011;15682;56.742;38.866;2023-12-07T05:34:53;25.1;;;10.6;;
28455;SDS011;15682;56.742;38.866;2023-12-07T05:36:53;26.9;;;11.4;;
28455;SDS011;15682;56.742;38.866;2023-12-07T05:38:52;26.6;;;10.9;;
28455;SDS011;15682;56.742;38.866;2023-12-07T05:40:52;26.1;;;10.5;;
28455;SDS011;15682;56.742;38.866;2023-12-07T05:42:52;23.1;;;10.6;;
28455;SDS011;15682;56.742;38.866;2023-12-07T05:44:52;27.1;;;11.8;;
28455;SDS011;15682;56.742;38.866;2023-12-07T05:46:51;25.3;;;11.0;;
28455;SDS011;15682;56.742;38.866;2023-12-07T05:48:51;25.7;;;11.2;;
28455;SDS011;15682;56.742;38.866;2023-12-07T05:50:51;24.9;;;11.3;;
28455;SDS011;15682;56.742;38.866;2023-12-07T05:52:50;25.8;;;10.9;;
28455;SDS011;15682;56.742;38.866;2023-12-07T05:54:50;26.0;;;11.6;;
28455;SDS011;15682;56.742;38.866;2023-12-07T05:56:50;23.9;;;11.0;;
28455;SDS011;15682;56.742;38.866;2023-12-07T05:58:50;27.6;;;11.6;;
28455;SDS011;15682;56.742;38.866;2023-12-07T06:00:49;29.5;;;12.4;;
28455;SDS011;15682;56.742;38.866;2023-12-07T06:02:49;28.8;;;12.2;;
28455;SDS011;15682;56.742;38.866;2023-12-07T06:04:49;27.3;;;12.6;;
28455;SDS011;15682;56.742;38.866;2023-12-07T06:06:48;26.3;;;11.3;;
28455;SDS011;15682;56.742;38.866;2023-12-07T06:08:48;27.6;;;10.9;;
28455;SDS011;15682;56.742;38.866;2023-12-07T06:10:48;25.4;;;11.0;;
28455;SDS011;15682;56.742;38.866;2023-12-07T06:12:47;28.1;;;11.8;;
28455;SDS011;15682;56.742;38.866;2023-12-07T06:14:47;28.9;;;12.8;;
28455;SDS011;15682;56.742;38.866;2023-12-07T06:16:47;30.4;;;12.5;;
28455;SDS011;15682;56.742;38.866;2023-12-07T06:18:46;30.3;;;13.4;;
28455;SDS011;15682;56.742;38.866;2023-12-07T06:20:46;32.9;;;13.7;;
28455;SDS011;15682;56.742;38.866;2023-12-07T06:22:46;33.0;;;13.5;;
28455;SDS011;15682;56.742;38.866;2023-12-07T06:24:45;37.7;;;14.9;;
28455;SDS011;15682;56.742;38.866;2023-12-07T06:26:45;34.7;;;13.8;;
28455;SDS011;15682;56.742;38.866;2023-12-07T06:28:45;36.5;;;14.2;;
28455;SDS011;15682;56.742;38.866;2023-12-07T06:30:45;29.2;;;11.8;;
28455;SDS011;15682;56.742;38.866;2023-12-07T06:32:44;30.3;;;13.1;;
28455;SDS011;15682;56.742;38.866;2023-12-07T06:34:44;29.1;;;13.5;;
28455;SDS011;15682;56.742;38.866;2023-12-07T06:36:44;30.2;;;12.5;;
28455;SDS011;15682;56.742;38.866;2023-12-07T06:38:43;29.6;;;11.7;;
28455;SDS011;15682;56.742;38.866;2023-12-07T06:40:43;26.8;;;11.1;;
28455;SDS011;15682;56.742;38.866;2023-12-07T06:42:43;24.8;;;10.9;;
28455;SDS011;15682;56.742;38.866;2023-12-07T06:44:43;24.5;;;10.7;;
28455;SDS011;15682;56.742;38.866;2023-12-07T06:46:42;25.4;;;10.1;;
28455;SDS011;15682;56.742;38.866;2023-12-07T06:48:42;25.9;;;11.0;;
28455;SDS011;15682;56.742;38.866;2023-12-07T06:50:41;25.7;;;11.3;;
28455;SDS011;15682;56.742;38.866;2023-12-07T06:52:41;30.5;;;13.0;;
28455;SDS011;15682;56.742;38.866;2023-12-07T06:54:41;32.9;;;13.7;;
28455;SDS011;15682;56.742;38.866;2023-12-07T06:56:41;33.4;;;14.2;;
28455;SDS011;15682;56.742;38.866;2023-12-07T06:58:40;31.2;;;13.7;;
28455;SDS011;15682;56.742;38.866;2023-12-07T07:00:40;26.5;;;10.2;;
28455;SDS011;15682;56.742;38.866;2023-12-07T07:02:40;26.4;;;11.5;;
28455;SDS011;15682;56.742;38.866;2023-12-07T07:04:39;27.5;;;11.7;;
28455;SDS011;15682;56.742;38.866;2023-12-07T07:06:39;30.0;;;11.5;;
28455;SDS011;15682;56.742;38.866;2023-12-07T07:08:39;29.1;;;12.1;;
28455;SDS011;15682;56.742;38.866;2023-12-07T07:10:39;29.8;;;10.6;;
28455;SDS011;15682;56.742;38.866;2023-12-07T07:12:38;26.5;;;10.9;;
28455;SDS011;15682;56.742;38.866;2023-12-07T07:14:38;21.1;;;10.1;;
28455;SDS011;15682;56.742;38.866;2023-12-07T07:16:38;27.3;;;10.9;;
28455;SDS011;15682;56.742;38.866;2023-12-07T07:18:38;26.0;;;11.3;;
28455;SDS011;15682;56.742;38.866;2023-12-07T07:20:37;27.1;;;11.5;;
28455;SDS011;15682;56.742;38.866;2023-12-07T07:22:37;28.1;;;12.4;;
28455;SDS011;15682;56.742;38.866;2023-12-07T07:24:37;28.3;;;12.0;;
28455;SDS011;15682;56.742;38.866;2023-12-07T07:26:36;30.4;;;13.0;;
28455;SDS011;15682;56.742;38.866;2023-12-07T07:28:36;34.0;;;13.2;;
28455;SDS011;15682;56.742;38.866;2023-12-07T07:30:36;30.0;;;11.6;;
28455;SDS011;15682;56.742;38.866;2023-12-07T07:32:35;25.6;;;11.1;;
28455;SDS011;15682;56.742;38.866;2023-12-07T07:34:35;21.9;;;10.3;;
28455;SDS011;15682;56.742;38.866;2023-12-07T07:36:35;23.9;;;9.7;;
28455;SDS011;15682;56.742;38.866;2023-12-07T07:38:35;27.9;;;9.9;;
28455;SDS011;15682;56.742;38.866;2023-12-07T07:40:34;23.7;;;10.7;;
28455;SDS011;15682;56.742;38.866;2023-12-07T07:42:34;24.3;;;10.6;;
28455;SDS011;15682;56.742;38.866;2023-12-07T07:44:34;22.8;;;10.2;;
28455;SDS011;15682;56.742;38.866;2023-12-07T07:46:34;20.9;;;8.9;;
28455;SDS011;15682;56.742;38.866;2023-12-07T07:48:33;22.7;;;9.6;;
28455;SDS011;15682;56.742;38.866;2023-12-07T07:50:33;23.9;;;9.6;;
28455;SDS011;15682;56.742;38.866;2023-12-07T07:52:33;20.8;;;8.8;;
28455;SDS011;15682;56.742;38.866;2023-12-07T07:54:32;21.0;;;8.9;;
28455;SDS011;15682;56.742;38.866;2023-12-07T07:56:32;22.0;;;9.5;;
28455;SDS011;15682;56.742;38.866;2023-12-07T07:58:32;21.2;;;9.5;;
28455;SDS011;15682;56.742;38.866;2023-12-07T08:00:31;28.7;;;10.5;;
28455;SDS011;15682;56.742;38.866;2023-12-07T08:02:31;24.7;;;11.2;;
28455;SDS011;15682;56.742;38.866;2023-12-07T08:04:31;22.6;;;11.4;;
28455;SDS011;15682;56.742;38.866;2023-12-07T08:06:30;24.2;;;11.8;;
28455;SDS011;15682;56.742;38.866;2023-12-07T08:08:31;27.1;;;12.7;;
28455;SDS011;15682;56.742;38.866;2023-12-07T08:10:30;25.8;;;11.6;;
28455;SDS011;15682;56.742;38.866;2023-12-07T08:12:30;26.4;;;11.2;;
28455;SDS011;15682;56.742;38.866;2023-12-07T08:14:29;24.5;;;10.8;;
28455;SDS011;15682;56.742;38.866;2023-12-07T08:16:29;23.4;;;11.1;;
28455;SDS011;15682;56.742;38.866;2023-12-07T08:18:29;24.3;;;10.7;;
28455;SDS011;15682;56.742;38.866;2023-12-07T08:20:28;24.1;;;11.2;;
28455;SDS011;15682;56.742;38.866;2023-12-07T08:22:29;28.7;;;12.2;;
28455;SDS011;15682;56.742;38.866;2023-12-07T08:24:28;31.1;;;13.0;;
28455;SDS011;15682;56.742;38.866;2023-12-07T08:26:28;23.2;;;9.6;;
28455;SDS011;15682;56.742;38.866;2023-12-07T08:28:27;23.3;;;11.6;;
28455;SDS011;15682;56.742;38.866;2023-12-07T08:30:27;21.8;;;10.7;;
28455;SDS011;15682;56.742;38.866;2023-12-07T08:32:27;23.6;;;11.1;;
28455;SDS011;15682;56.742;38.866;2023-12-07T08:34:26;21.7;;;10.4;;
28455;SDS011;15682;56.742;38.866;2023-12-07T08:36:26;17.8;;;8.0;;
28455;SDS011;15682;56.742;38.866;2023-12-07T08:38:26;16.1;;;7.7;;
28455;SDS011;15682;56.742;38.866;2023-12-07T08:40:26;16.0;;;7.4;;
28455;SDS011;15682;56.742;38.866;2023-12-07T08:42:25;17.4;;;7.6;;
28455;SDS011;15682;56.742;38.866;2023-12-07T08:44:25;14.6;;;7.4;;
28455;SDS011;15682;56.742;38.866;2023-12-07T08:46:25;18.2;;;7.7;;
28455;SDS011;15682;56.742;38.866;2023-12-07T08:48:25;15.2;;;7.9;;
28455;SDS011;15682;56.742;38.866;2023-12-07T08:50:24;15.8;;;7.9;;
28455;SDS011;15682;56.742;38.866;2023-12-07T08:52:24;19.3;;;8.4;;
28455;SDS011;15682;56.742;38.866;2023-12-07T08:54:24;24.7;;;10.5;;
28455;SDS011;15682;56.742;38.866;2023-12-07T08:56:23;17.8;;;9.0;;
28455;SDS011;15682;56.742;38.866;2023-12-07T08:58:23;16.5;;;8.4;;
28455;SDS011;15682;56.742;38.866;2023-12-07T09:00:23;18.3;;;8.9;;
28455;SDS011;15682;56.742;38.866;2023-12-07T09:02:23;23.2;;;9.3;;
28455;SDS011;15682;56.742;38.866;2023-12-07T09:04:22;19.4;;;8.9;;
28455;SDS011;15682;56.742;38.866;2023-12-07T09:06:22;26.6;;;12.5;;
28455;SDS011;15682;56.742;38.866;2023-12-07T09:08:22;23.6;;;10.2;;
28455;SDS011;15682;56.742;38.866;2023-12-07T09:10:22;20.9;;;9.4;;
28455;SDS011;15682;56.742;38.866;2023-12-07T09:12:21;23.9;;;11.0;;
28455;SDS011;15682;56.742;38.866;2023-12-07T09:14:21;17.5;;;8.6;;
28455;SDS011;15682;56.742;38.866;2023-12-07T09:16:21;18.2;;;8.7;;
28455;SDS011;15682;56.742;38.866;2023-12-07T09:18:21;18.6;;;8.6;;
28455;SDS011;15682;56.742;38.866;2023-12-07T09:20:20;20.4;;;9.8;;
28455;SDS011;15682;56.742;38.866;2023-12-07T09:22:20;37.4;;;17.1;;
28455;SDS011;15682;56.742;38.866;2023-12-07T09:24:20;25.3;;;12.1;;
28455;SDS011;15682;56.742;38.866;2023-12-07T09:26:20;18.8;;;8.8;;
28455;SDS011;15682;56.742;38.866;2023-12-07T09:28:19;17.8;;;8.6;;
28455;SDS011;15682;56.742;38.866;2023-12-07T09:30:19;20.7;;;9.8;;
28455;SDS011;15682;56.742;38.866;2023-12-07T09:32:19;18.6;;;8.7;;
28455;SDS011;15682;56.742;38.866;2023-12-07T09:34:19;18.1;;;8.7;;
28455;SDS011;15682;56.742;38.866;2023-12-07T09:36:18;19.4;;;8.9;;
28455;SDS011;15682;56.742;38.866;2023-12-07T09:38:18;19.3;;;9.0;;
28455;SDS011;15682;56.742;38.866;2023-12-07T09:40:19;19.0;;;9.3;;
28455;SDS011;15682;56.742;38.866;2023-12-07T09:42:18;18.3;;;9.0;;
28455;SDS011;15682;56.742;38.866;2023-12-07T09:44:17;18.7;;;9.0;;
28455;SDS011;15682;56.742;38.866;2023-12-07T09:46:17;22.1;;;9.4;;
28455;SDS011;15682;56.742;38.866;2023-12-07T09:48:17;20.0;;;9.0;;
28455;SDS011;15682;56.742;38.866;2023-12-07T09:50:17;16.0;;;7.8;;
28455;SDS011;15682;56.742;38.866;2023-12-07T09:52:16;18.9;;;9.3;;
28455;SDS011;15682;56.742;38.866;2023-12-07T09:54:16;18.1;;;8.5;;
28455;SDS011;15682;56.742;38.866;2023-12-07T09:56:16;16.6;;;8.5;;
28455;SDS011;15682;56.742;38.866;2023-12-07T09:58:16;19.5;;;8.7;;
28455;SDS011;15682;56.742;38.866;2023-12-07T10:00:15;22.5;;;10.0;;
28455;SDS011;15682;56.742;38.866;2023-12-07T10:02:15;21.0;;;9.8;;
28455;SDS011;15682;56.742;38.866;2023-12-07T10:04:15;19.8;;;8.5;;
28455;SDS011;15682;56.742;38.866;2023-12-07T10:06:14;18.9;;;9.1;;
28455;SDS011;15682;56.742;38.866;2023-12-07T10:08:15;21.3;;;8.9;;
28455;SDS011;15682;56.742;38.866;2023-12-07T10:10:14;21.2;;;9.2;;
28455;SDS011;15682;56.742;38.866;2023-12-07T10:12:14;16.8;;;8.5;;
28455;SDS011;15682;56.742;38.866;2023-12-07T10:14:13;21.7;;;9.4;;
28455;SDS011;15682;56.742;38.866;2023-12-07T10:16:14;20.2;;;9.3;;
28455;SDS011;15682;56.742;38.866;2023-12-07T10:18:13;22.2;;;9.2;;
28455;SDS011;15682;56.742;38.866;2023-12-07T10:20:13;21.8;;;9.8;;
28455;SDS011;15682;56.742;38.866;2023-12-07T10:22:13;26.8;;;9.5;;
28455;SDS011;15682;56.742;38.866;2023-12-07T10:24:12;20.8;;;9.8;;
28455;SDS011;15682;56.742;38.866;2023-12-07T10:26:12;21.9;;;9.5;;
28455;SDS011;15682;56.742;38.866;2023-12-07T10:28:11;20.6;;;8.7;;
28455;SDS011;15682;56.742;38.866;2023-12-07T10:30:12;20.4;;;8.8;;
28455;SDS011;15682;56.742;38.866;2023-12-07T10:32:11;17.3;;;8.8;;
28455;SDS011;15682;56.742;38.866;2023-12-07T10:34:11;21.9;;;10.0;;
28455;SDS011;15682;56.742;38.866;2023-12-07T10:36:10;19.9;;;8.6;;
28455;SDS011;15682;56.742;38.866;2023-12-07T10:38:10;19.4;;;9.6;;
28455;SDS011;15682;56.742;38.866;2023-12-07T10:40:10;21.0;;;9.2;;
28455;SDS011;15682;56.742;38.866;2023-12-07T10:42:10;20.2;;;9.3;;
28455;SDS011;15682;56.742;38.866;2023-12-07T10:44:11;20.9;;;9.3;;
28455;SDS011;15682;56.742;38.866;2023-12-07T10:46:09;18.3;;;8.7;;
28455;SDS011;15682;56.742;38.866;2023-12-07T10:48:09;20.9;;;9.1;;
28455;SDS011;15682;56.742;38.866;2023-12-07T10:50:09;20.7;;;9.5;;
28455;SDS011;15682;56.742;38.866;2023-12-07T10:52:08;19.9;;;9.2;;
28455;SDS011;15682;56.742;38.866;2023-12-07T10:54:08;21.6;;;9.5;;
28455;SDS011;15682;56.742;38.866;2023-12-07T10:56:09;19.5;;;9.2;;
28455;SDS011;15682;56.742;38.866;2023-12-07T10:58:07;19.5;;;9.8;;
28455;SDS011;15682;56.742;38.866;2023-12-07T11:00:07;19.3;;;9.3;;
28455;SDS011;15682;56.742;38.866;2023-12-07T11:02:07;20.4;;;8.8;;
28455;SDS011;15682;56.742;38.866;2023-12-07T11:04:07;19.0;;;9.2;;
28455;SDS011;15682;56.742;38.866;2023-12-07T11:06:07;19.1;;;9.3;;
28455;SDS011;15682;56.742;38.866;2023-12-07T11:08:07;18.2;;;8.9;;
28455;SDS011;15682;56.742;38.866;2023-12-07T11:10:10;19.9;;;9.0;;
28455;SDS011;15682;56.742;38.866;2023-12-07T11:12:07;21.3;;;10.1;;
28455;SDS011;15682;56.742;38.866;2023-12-07T11:14:06;16.1;;;8.5;;
28455;SDS011;15682;56.742;38.866;2023-12-07T11:16:05;20.0;;;8.7;;
28455;SDS011;15682;56.742;38.866;2023-12-07T11:18:05;22.6;;;9.9;;
28455;SDS011;15682;56.742;38.866;2023-12-07T11:20:05;22.3;;;10.3;;
28455;SDS011;15682;56.742;38.866;2023-12-07T11:22:05;44.5;;;17.9;;
28455;SDS011;15682;56.742;38.866;2023-12-07T11:24:04;53.4;;;21.6;;
28455;SDS011;15682;56.742;38.866;2023-12-07T11:26:04;30.0;;;11.8;;
28455;SDS011;15682;56.742;38.866;2023-12-07T11:28:04;21.3;;;9.6;;
28455;SDS011;15682;56.742;38.866;2023-12-07T11:30:03;21.1;;;9.8;;
28455;SDS011;15682;56.742;38.866;2023-12-07T11:32:04;19.0;;;8.7;;
28455;SDS011;15682;56.742;38.866;2023-12-07T11:34:05;21.1;;;9.7;;
28455;SDS011;15682;56.742;38.866;2023-12-07T11:36:03;23.2;;;9.9;;
28455;SDS011;15682;56.742;38.866;2023-12-07T11:38:03;20.8;;;9.6;;
28455;SDS011;15682;56.742;38.866;2023-12-07T11:40:02;19.3;;;9.1;;
28455;SDS011;15682;56.742;38.866;2023-12-07T11:42:05;20.8;;;10.2;;
28455;SDS011;15682;56.742;38.866;2023-12-07T11:44:01;20.3;;;9.1;;
28455;SDS011;15682;56.742;38.866;2023-12-07T11:46:01;23.1;;;10.2;;
28455;SDS011;15682;56.742;38.866;2023-12-07T11:48:09;24.2;;;9.8;;
28455;SDS011;15682;56.742;38.866;2023-12-07T11:50:03;21.2;;;10.0;;
28455;SDS011;15682;56.742;38.866;2023-12-07T11:52:01;21.3;;;9.9;;
28455;SDS011;15682;56.742;38.866;2023-12-07T11:54:00;24.1;;;11.9;;
28455;SDS011;15682;56.742;38.866;2023-12-07T11:56:00;28.8;;;14.2;;